sensor_id;sensor_type;location;lat;lon;timestamp;pressure;altitude;pressure_sealevel;temperature;humidity
36254;BME280;22291;52.250;21.228;2022-07-10T00:01:33;100179.48;;;14.66;70.16
36254;BME280;22291;52.250;21.228;2022-07-10T00:03:59;100173.70;;;14.68;70.44
36254;BME280;22291;52.250;21.228;2022-07-10T00:06:25;100174.58;;;14.66;70.37
36254;BME280;22291;52.250;21.228;2022-07-10T00:08:51;100177.42;;;14.63;70.45
36254;BME280;22291;52.250;21.228;2022-07-10T00:11:18;100175.04;;;14.62;70.47
36254;BME280;22291;52.250;21.228;2022-07-10T00:13:44;100176.16;;;14.61;70.60
36254;BME280;22291;52.250;21.228;2022-07-10T00:16:10;100170.95;;;14.62;70.78
36254;BME280;22291;52.250;21.228;2022-07-10T00:18:36;100179.13;;;14.62;71.00
36254;BME280;22291;52.250;21.228;2022-07-10T00:21:02;100177.77;;;14.62;70.94
36254;BME280;22291;52.250;21.228;2022-07-10T00:23:28;100176.06;;;14.63;71.07
36254;BME280;22291;52.250;21.228;2022-07-10T00:25:54;100173.34;;;14.63;71.12
36254;BME280;22291;52.250;21.228;2022-07-10T00:28:20;100174.58;;;14.66;71.23
36254;BME280;22291;52.250;21.228;2022-07-10T00:30:48;100171.31;;;14.66;71.04
36254;BME280;22291;52.250;21.228;2022-07-10T00:33:14;100164.72;;;14.67;71.14
36254;BME280;22291;52.250;21.228;2022-07-10T00:35:40;100158.39;;;14.69;71.49
36254;BME280;22291;52.250;21.228;2022-07-10T00:38:07;100161.56;;;14.71;71.37
36254;BME280;22291;52.250;21.228;2022-07-10T00:40:33;100157.23;;;14.70;71.52
36254;BME280;22291;52.250;21.228;2022-07-10T00:42:59;100162.34;;;14.72;71.50
36254;BME280;22291;52.250;21.228;2022-07-10T00:45:25;100160.98;;;14.72;71.40
36254;BME280;22291;52.250;21.228;2022-07-10T00:47:51;100161.22;;;14.73;71.54
36254;BME280;22291;52.250;21.228;2022-07-10T00:50:18;100156.33;;;14.72;71.46
36254;BME280;22291;52.250;21.228;2022-07-10T00:52:45;100154.41;;;14.73;71.37
36254;BME280;22291;52.250;21.228;2022-07-10T00:55:13;100151.70;;;14.73;71.36
36254;BME280;22291;52.250;21.228;2022-07-10T00:57:40;100140.56;;;14.72;71.23
36254;BME280;22291;52.250;21.228;2022-07-10T01:00:08;100144.89;;;14.73;71.45
36254;BME280;22291;52.250;21.228;2022-07-10T01:02:41;100138.18;;;14.70;71.48
36254;BME280;22291;52.250;21.228;2022-07-10T01:05:07;100139.54;;;14.70;71.48
36254;BME280;22291;52.250;21.228;2022-07-10T01:07:38;100144.54;;;14.68;71.56
36254;BME280;22291;52.250;21.228;2022-07-10T01:10:05;100145.21;;;14.65;71.47
36254;BME280;22291;52.250;21.228;2022-07-10T01:12:32;100136.27;;;14.65;71.82
36254;BME280;22291;52.250;21.228;2022-07-10T01:14:59;100133.09;;;14.63;71.68
36254;BME280;22291;52.250;21.228;2022-07-10T01:17:25;100132.06;;;14.61;71.80
36254;BME280;22291;52.250;21.228;2022-07-10T01:19:54;100140.44;;;14.62;71.79
36254;BME280;22291;52.250;21.228;2022-07-10T01:22:20;100127.75;;;14.60;71.87
36254;BME280;22291;52.250;21.228;2022-07-10T01:24:46;100127.50;;;14.59;71.68
36254;BME280;22291;52.250;21.228;2022-07-10T01:27:12;100133.28;;;14.57;71.80
36254;BME280;22291;52.250;21.228;2022-07-10T01:29:39;100130.90;;;14.56;71.93
36254;BME280;22291;52.250;21.228;2022-07-10T01:32:06;100123.75;;;14.51;71.88
36254;BME280;22291;52.250;21.228;2022-07-10T01:34:32;100123.50;;;14.50;71.90
36254;BME280;22291;52.250;21.228;2022-07-10T01:36:58;100124.21;;;14.47;71.88
36254;BME280;22291;52.250;21.228;2022-07-10T01:39:24;100125.67;;;14.45;72.01
36254;BME280;22291;52.250;21.228;2022-07-10T01:41:51;100118.63;;;14.44;72.06
36254;BME280;22291;52.250;21.228;2022-07-10T01:44:17;100110.92;;;14.39;72.11
36254;BME280;22291;52.250;21.228;2022-07-10T01:46:46;100111.05;;;14.37;72.19
36254;BME280;22291;52.250;21.228;2022-07-10T01:49:14;100106.83;;;14.33;72.13
36254;BME280;22291;52.250;21.228;2022-07-10T01:51:40;100106.38;;;14.31;72.30
36254;BME280;22291;52.250;21.228;2022-07-10T01:54:08;100100.82;;;14.28;72.44
36254;BME280;22291;52.250;21.228;2022-07-10T01:56:34;100108.53;;;14.26;72.59
36254;BME280;22291;52.250;21.228;2022-07-10T01:59:01;100107.84;;;14.23;72.73
36254;BME280;22291;52.250;21.228;2022-07-10T02:01:29;100110.45;;;14.19;72.59
36254;BME280;22291;52.250;21.228;2022-07-10T02:03:56;100102.38;;;14.16;72.63
36254;BME280;22291;52.250;21.228;2022-07-10T02:06:41;100101.72;;;14.13;72.71
36254;BME280;22291;52.250;21.228;2022-07-10T02:09:08;100100.00;;;14.09;72.80
36254;BME280;22291;52.250;21.228;2022-07-10T02:11:34;100102.36;;;14.04;73.09
36254;BME280;22291;52.250;21.228;2022-07-10T02:14:01;100101.46;;;14.00;73.06
36254;BME280;22291;52.250;21.228;2022-07-10T02:16:27;100097.72;;;13.98;73.22
36254;BME280;22291;52.250;21.228;2022-07-10T02:18:53;100096.45;;;13.96;73.23
36254;BME280;22291;52.250;21.228;2022-07-10T02:21:19;100091.92;;;13.94;73.65
36254;BME280;22291;52.250;21.228;2022-07-10T02:23:45;100090.89;;;13.92;73.71
36254;BME280;22291;52.250;21.228;2022-07-10T02:26:11;100092.58;;;13.91;74.00
36254;BME280;22291;52.250;21.228;2022-07-10T02:28:37;100090.11;;;13.92;73.89
36254;BME280;22291;52.250;21.228;2022-07-10T02:31:04;100086.27;;;13.93;74.10
36254;BME280;22291;52.250;21.228;2022-07-10T02:33:32;100091.34;;;13.94;74.08
36254;BME280;22291;52.250;21.228;2022-07-10T02:35:58;100088.63;;;13.94;74.36
36254;BME280;22291;52.250;21.228;2022-07-10T02:38:24;100091.58;;;13.95;74.26
36254;BME280;22291;52.250;21.228;2022-07-10T02:40:50;100090.23;;;13.95;74.29
36254;BME280;22291;52.250;21.228;2022-07-10T02:43:20;100083.09;;;13.97;74.52
36254;BME280;22291;52.250;21.228;2022-07-10T02:45:46;100089.11;;;13.96;74.52
36254;BME280;22291;52.250;21.228;2022-07-10T02:48:15;100085.03;;;13.96;74.51
36254;BME280;22291;52.250;21.228;2022-07-10T02:50:44;100086.59;;;13.97;74.77
36254;BME280;22291;52.250;21.228;2022-07-10T02:53:10;100077.66;;;13.97;74.60
36254;BME280;22291;52.250;21.228;2022-07-10T02:55:36;100090.13;;;13.98;74.68
36254;BME280;22291;52.250;21.228;2022-07-10T02:58:02;100089.56;;;13.98;74.98
36254;BME280;22291;52.250;21.228;2022-07-10T03:00:29;100088.77;;;13.98;75.07
36254;BME280;22291;52.250;21.228;2022-07-10T03:02:56;100090.13;;;13.98;75.04
36254;BME280;22291;52.250;21.228;2022-07-10T03:05:23;100090.67;;;13.97;75.03
36254;BME280;22291;52.250;21.228;2022-07-10T03:07:49;100092.61;;;13.97;74.89
36254;BME280;22291;52.250;21.228;2022-07-10T03:10:16;100096.69;;;13.97;75.11
36254;BME280;22291;52.250;21.228;2022-07-10T03:12:43;100094.21;;;13.98;75.19
36254;BME280;22291;52.250;21.228;2022-07-10T03:15:10;100094.21;;;13.98;75.23
36254;BME280;22291;52.250;21.228;2022-07-10T03:17:37;100090.92;;;13.98;75.22
36254;BME280;22291;52.250;21.228;2022-07-10T03:20:04;100083.78;;;14.00;75.25
36254;BME280;22291;52.250;21.228;2022-07-10T03:22:31;100085.14;;;14.00;75.34
36254;BME280;22291;52.250;21.228;2022-07-10T03:24:58;100083.45;;;14.01;75.39
36254;BME280;22291;52.250;21.228;2022-07-10T03:27:25;100086.86;;;14.05;75.82
36254;BME280;22291;52.250;21.228;2022-07-10T03:29:51;100088.67;;;14.07;75.74
36254;BME280;22291;52.250;21.228;2022-07-10T03:32:17;100087.19;;;14.09;75.81
36254;BME280;22291;52.250;21.228;2022-07-10T03:34:43;100087.43;;;14.10;75.93
36254;BME280;22291;52.250;21.228;2022-07-10T03:37:10;100087.30;;;14.13;76.01
36254;BME280;22291;52.250;21.228;2022-07-10T03:39:36;100084.49;;;14.15;76.01
36254;BME280;22291;52.250;21.228;2022-07-10T03:42:02;100085.27;;;14.16;75.92
36254;BME280;22291;52.250;21.228;2022-07-10T03:44:30;100090.63;;;14.18;75.90
36254;BME280;22291;52.250;21.228;2022-07-10T03:46:56;100091.07;;;14.20;75.90
36254;BME280;22291;52.250;21.228;2022-07-10T03:49:22;100094.00;;;14.22;75.86
36254;BME280;22291;52.250;21.228;2022-07-10T03:51:49;100091.77;;;14.24;75.87
36254;BME280;22291;52.250;21.228;2022-07-10T03:54:15;100090.61;;;14.25;75.91
36254;BME280;22291;52.250;21.228;2022-07-10T03:56:41;100084.63;;;14.25;75.95
36254;BME280;22291;52.250;21.228;2022-07-10T03:59:26;100085.62;;;14.27;75.74
36254;BME280;22291;52.250;21.228;2022-07-10T04:01:53;100089.94;;;14.28;75.68
36254;BME280;22291;52.250;21.228;2022-07-10T04:04:21;100088.81;;;14.29;75.58
36254;BME280;22291;52.250;21.228;2022-07-10T04:06:47;100081.69;;;14.30;75.50
36254;BME280;22291;52.250;21.228;2022-07-10T04:09:13;100079.17;;;14.31;75.53
36254;BME280;22291;52.250;21.228;2022-07-10T04:11:39;100077.92;;;14.35;75.50
36254;BME280;22291;52.250;21.228;2022-07-10T04:14:05;100079.30;;;14.41;75.81
36254;BME280;22291;52.250;21.228;2022-07-10T04:16:31;100079.41;;;14.45;75.88
36254;BME280;22291;52.250;21.228;2022-07-10T04:18:57;100085.41;;;14.50;75.46
36254;BME280;22291;52.250;21.228;2022-07-10T04:21:23;100094.50;;;14.54;75.49
36254;BME280;22291;52.250;21.228;2022-07-10T04:23:49;100091.58;;;14.60;75.52
36254;BME280;22291;52.250;21.228;2022-07-10T04:26:16;100099.62;;;14.68;75.39
36254;BME280;22291;52.250;21.228;2022-07-10T04:28:42;100096.09;;;14.74;75.16
36254;BME280;22291;52.250;21.228;2022-07-10T04:31:07;100096.30;;;14.81;75.07
36254;BME280;22291;52.250;21.228;2022-07-10T04:33:33;100090.77;;;14.90;74.60
36254;BME280;22291;52.250;21.228;2022-07-10T04:36:00;100097.98;;;14.98;74.71
36254;BME280;22291;52.250;21.228;2022-07-10T04:38:26;100087.20;;;15.08;74.58
36254;BME280;22291;52.250;21.228;2022-07-10T04:40:52;100076.73;;;15.16;74.38
36254;BME280;22291;52.250;21.228;2022-07-10T04:43:18;100073.29;;;15.25;74.17
36254;BME280;22291;52.250;21.228;2022-07-10T04:45:44;100078.16;;;15.32;73.62
36254;BME280;22291;52.250;21.228;2022-07-10T04:48:10;100073.61;;;15.36;72.87
36254;BME280;22291;52.250;21.228;2022-07-10T04:50:37;100076.77;;;15.44;72.99
36254;BME280;22291;52.250;21.228;2022-07-10T04:53:04;100072.96;;;15.55;72.77
36254;BME280;22291;52.250;21.228;2022-07-10T04:55:30;100072.22;;;15.64;72.22
36254;BME280;22291;52.250;21.228;2022-07-10T04:57:56;100076.16;;;15.73;72.13
36254;BME280;22291;52.250;21.228;2022-07-10T05:00:22;100071.37;;;15.82;71.52
36254;BME280;22291;52.250;21.228;2022-07-10T05:02:48;100071.56;;;15.90;71.26
36254;BME280;22291;52.250;21.228;2022-07-10T05:05:15;100070.95;;;15.96;71.13
36254;BME280;22291;52.250;21.228;2022-07-10T05:07:42;100071.56;;;16.05;70.47
36254;BME280;22291;52.250;21.228;2022-07-10T05:10:09;100071.62;;;16.15;70.78
36254;BME280;22291;52.250;21.228;2022-07-10T05:12:35;100075.53;;;16.24;70.73
36254;BME280;22291;52.250;21.228;2022-07-10T05:15:02;100075.81;;;16.35;70.74
36254;BME280;22291;52.250;21.228;2022-07-10T05:17:29;100070.59;;;16.46;70.33
36254;BME280;22291;52.250;21.228;2022-07-10T05:19:55;100066.11;;;16.53;69.27
36254;BME280;22291;52.250;21.228;2022-07-10T05:22:23;100067.91;;;16.55;68.55
36254;BME280;22291;52.250;21.228;2022-07-10T05:24:50;100060.66;;;16.63;68.18
36254;BME280;22291;52.250;21.228;2022-07-10T05:27:18;100057.73;;;16.72;68.36
36254;BME280;22291;52.250;21.228;2022-07-10T05:29:46;100064.00;;;16.82;68.34
36254;BME280;22291;52.250;21.228;2022-07-10T05:32:13;100060.03;;;16.95;68.22
36254;BME280;22291;52.250;21.228;2022-07-10T05:34:39;100061.48;;;17.09;67.60
36254;BME280;22291;52.250;21.228;2022-07-10T05:37:05;100053.89;;;17.18;67.11
36254;BME280;22291;52.250;21.228;2022-07-10T05:39:33;100055.81;;;17.27;66.69
36254;BME280;22291;52.250;21.228;2022-07-10T05:41:59;100054.16;;;17.42;66.47
36254;BME280;22291;52.250;21.228;2022-07-10T05:44:25;100051.84;;;17.54;66.25
36254;BME280;22291;52.250;21.228;2022-07-10T05:46:51;100056.79;;;17.68;66.01
36254;BME280;22291;52.250;21.228;2022-07-10T05:49:17;100046.16;;;17.86;65.67
36254;BME280;22291;52.250;21.228;2022-07-10T05:51:43;100045.91;;;18.04;65.64
36254;BME280;22291;52.250;21.228;2022-07-10T05:54:09;100042.70;;;18.22;65.15
36254;BME280;22291;52.250;21.228;2022-07-10T05:56:35;100046.23;;;18.36;64.44
36254;BME280;22291;52.250;21.228;2022-07-10T05:59:01;100042.92;;;18.50;63.99
36254;BME280;22291;52.250;21.228;2022-07-10T06:01:27;100049.77;;;18.63;63.46
36254;BME280;22291;52.250;21.228;2022-07-10T06:03:54;100046.70;;;18.81;63.53
36254;BME280;22291;52.250;21.228;2022-07-10T06:06:20;100046.00;;;19.01;63.13
36254;BME280;22291;52.250;21.228;2022-07-10T06:08:46;100043.86;;;19.18;61.94
36254;BME280;22291;52.250;21.228;2022-07-10T06:11:13;100038.20;;;19.20;61.09
36254;BME280;22291;52.250;21.228;2022-07-10T06:13:39;100040.83;;;19.27;60.70
36254;BME280;22291;52.250;21.228;2022-07-10T06:16:06;100033.34;;;19.40;60.79
36254;BME280;22291;52.250;21.228;2022-07-10T06:18:34;100041.30;;;19.53;60.43
36254;BME280;22291;52.250;21.228;2022-07-10T06:21:00;100037.72;;;19.66;59.76
36254;BME280;22291;52.250;21.228;2022-07-10T06:23:26;100040.52;;;19.73;59.27
36254;BME280;22291;52.250;21.228;2022-07-10T06:25:52;100039.71;;;19.86;59.13
36254;BME280;22291;52.250;21.228;2022-07-10T06:28:19;100040.52;;;19.90;57.30
36254;BME280;22291;52.250;21.228;2022-07-10T06:30:46;100044.17;;;19.81;56.92
36254;BME280;22291;52.250;21.228;2022-07-10T06:33:12;100036.63;;;19.74;57.04
36254;BME280;22291;52.250;21.228;2022-07-10T06:35:38;100040.12;;;19.71;57.08
36254;BME280;22291;52.250;21.228;2022-07-10T06:38:04;100032.08;;;19.68;57.12
36254;BME280;22291;52.250;21.228;2022-07-10T06:40:35;100036.09;;;19.61;56.71
36254;BME280;22291;52.250;21.228;2022-07-10T06:43:02;100034.84;;;19.51;56.56
36254;BME280;22291;52.250;21.228;2022-07-10T06:45:29;100030.84;;;19.45;56.22
36254;BME280;22291;52.250;21.228;2022-07-10T06:47:56;100025.52;;;19.26;56.13
36254;BME280;22291;52.250;21.228;2022-07-10T06:50:31;100035.63;;;19.18;55.32
36254;BME280;22291;52.250;21.228;2022-07-10T06:52:57;100034.47;;;19.02;54.77
36254;BME280;22291;52.250;21.228;2022-07-10T06:55:25;100035.31;;;18.93;55.36
36254;BME280;22291;52.250;21.228;2022-07-10T06:57:53;100037.60;;;18.87;55.22
36254;BME280;22291;52.250;21.228;2022-07-10T07:00:20;100038.12;;;18.83;55.24
36254;BME280;22291;52.250;21.228;2022-07-10T07:02:47;100041.38;;;18.79;55.31
36254;BME280;22291;52.250;21.228;2022-07-10T07:05:13;100033.06;;;18.72;55.38
36254;BME280;22291;52.250;21.228;2022-07-10T07:07:40;100041.42;;;18.69;55.41
36254;BME280;22291;52.250;21.228;2022-07-10T07:10:08;100033.80;;;18.69;55.58
36254;BME280;22291;52.250;21.228;2022-07-10T07:12:35;100038.86;;;18.66;55.65
36254;BME280;22291;52.250;21.228;2022-07-10T07:15:02;100037.91;;;18.69;55.95
36254;BME280;22291;52.250;21.228;2022-07-10T07:17:29;100037.44;;;18.76;55.77
36254;BME280;22291;52.250;21.228;2022-07-10T07:20:04;100044.11;;;18.79;55.95
36254;BME280;22291;52.250;21.228;2022-07-10T07:22:49;100041.71;;;18.87;55.75
36254;BME280;22291;52.250;21.228;2022-07-10T07:25:34;100035.58;;;18.97;55.88
36254;BME280;22291;52.250;21.228;2022-07-10T07:28:00;100036.78;;;19.17;55.84
36254;BME280;22291;52.250;21.228;2022-07-10T07:30:26;100030.52;;;19.33;56.06
36254;BME280;22291;52.250;21.228;2022-07-10T07:32:53;100022.03;;;19.46;55.49
36254;BME280;22291;52.250;21.228;2022-07-10T07:35:19;100026.20;;;19.53;55.28
36254;BME280;22291;52.250;21.228;2022-07-10T07:37:47;100028.20;;;19.56;55.03
36254;BME280;22291;52.250;21.228;2022-07-10T07:40:17;100030.36;;;19.73;55.01
36254;BME280;22291;52.250;21.228;2022-07-10T07:42:45;100029.16;;;19.91;55.23
36254;BME280;22291;52.250;21.228;2022-07-10T07:45:12;100026.96;;;20.36;54.57
36254;BME280;22291;52.250;21.228;2022-07-10T07:47:50;100035.48;;;20.79;55.19
36254;BME280;22291;52.250;21.228;2022-07-10T07:50:22;100024.70;;;21.29;52.90
36254;BME280;22291;52.250;21.228;2022-07-10T07:52:51;100020.22;;;21.45;52.55
36254;BME280;22291;52.250;21.228;2022-07-10T07:55:19;100028.55;;;21.52;52.05
36254;BME280;22291;52.250;21.228;2022-07-10T07:57:46;100027.98;;;21.78;51.97
36254;BME280;22291;52.250;21.228;2022-07-10T08:00:14;100018.92;;;21.77;50.21
36254;BME280;22291;52.250;21.228;2022-07-10T08:02:44;100014.02;;;21.91;50.03
36254;BME280;22291;52.250;21.228;2022-07-10T08:05:10;100018.56;;;22.33;51.56
36254;BME280;22291;52.250;21.228;2022-07-10T08:07:41;100025.34;;;22.83;51.03
36254;BME280;22291;52.250;21.228;2022-07-10T08:10:16;100023.18;;;22.79;48.29
36254;BME280;22291;52.250;21.228;2022-07-10T08:12:44;100026.39;;;22.63;48.22
36254;BME280;22291;52.250;21.228;2022-07-10T08:15:13;100018.53;;;22.54;48.36
36254;BME280;22291;52.250;21.228;2022-07-10T08:17:41;100029.55;;;22.58;48.86
36254;BME280;22291;52.250;21.228;2022-07-10T08:20:10;100028.91;;;22.69;48.72
36254;BME280;22291;52.250;21.228;2022-07-10T08:22:38;100020.64;;;22.77;48.08
36254;BME280;22291;52.250;21.228;2022-07-10T08:25:06;100027.14;;;22.71;47.37
36254;BME280;22291;52.250;21.228;2022-07-10T08:27:32;100025.39;;;22.65;47.21
36254;BME280;22291;52.250;21.228;2022-07-10T08:29:58;100023.63;;;22.52;46.92
36254;BME280;22291;52.250;21.228;2022-07-10T08:32:24;100026.58;;;22.57;46.51
36254;BME280;22291;52.250;21.228;2022-07-10T08:34:53;100026.80;;;22.58;46.81
36254;BME280;22291;52.250;21.228;2022-07-10T08:37:20;100024.63;;;22.61;46.58
36254;BME280;22291;52.250;21.228;2022-07-10T08:39:47;100026.18;;;22.62;46.46
36254;BME280;22291;52.250;21.228;2022-07-10T08:42:15;100026.19;;;22.59;46.65
36254;BME280;22291;52.250;21.228;2022-07-10T08:44:42;100027.20;;;22.53;46.28
36254;BME280;22291;52.250;21.228;2022-07-10T08:47:08;100014.41;;;22.40;45.92
36254;BME280;22291;52.250;21.228;2022-07-10T08:49:37;100017.95;;;22.23;46.42
36254;BME280;22291;52.250;21.228;2022-07-10T08:52:08;100022.11;;;22.12;46.40
36254;BME280;22291;52.250;21.228;2022-07-10T08:54:38;100022.09;;;22.01;46.59
36254;BME280;22291;52.250;21.228;2022-07-10T08:57:05;100020.13;;;21.87;46.19
36254;BME280;22291;52.250;21.228;2022-07-10T08:59:31;100029.76;;;21.80;46.16
36254;BME280;22291;52.250;21.228;2022-07-10T09:01:58;100024.45;;;21.95;46.98
36254;BME280;22291;52.250;21.228;2022-07-10T09:04:26;100031.54;;;22.07;46.92
36254;BME280;22291;52.250;21.228;2022-07-10T09:06:54;100027.20;;;22.24;46.64
36254;BME280;22291;52.250;21.228;2022-07-10T09:09:21;100018.55;;;22.22;46.61
36254;BME280;22291;52.250;21.228;2022-07-10T09:11:57;100024.46;;;22.17;46.47
36254;BME280;22291;52.250;21.228;2022-07-10T09:14:27;100027.98;;;22.03;46.54
36254;BME280;22291;52.250;21.228;2022-07-10T09:16:54;100027.59;;;21.94;46.63
36254;BME280;22291;52.250;21.228;2022-07-10T09:19:24;100025.45;;;22.29;48.17
36254;BME280;22291;52.250;21.228;2022-07-10T09:24:40;100018.91;;;23.19;47.08
36254;BME280;22291;52.250;21.228;2022-07-10T09:27:09;100009.67;;;23.84;46.24
36254;BME280;22291;52.250;21.228;2022-07-10T09:29:52;100017.02;;;24.01;45.40
36254;BME280;22291;52.250;21.228;2022-07-10T09:32:23;100013.41;;;23.85;43.40
36254;BME280;22291;52.250;21.228;2022-07-10T09:34:51;100008.95;;;23.69;44.13
36254;BME280;22291;52.250;21.228;2022-07-10T09:37:23;99998.16;;;23.93;44.54
36254;BME280;22291;52.250;21.228;2022-07-10T09:40:01;100002.58;;;24.47;45.55
36254;BME280;22291;52.250;21.228;2022-07-10T09:42:32;99998.38;;;25.20;44.46
36254;BME280;22291;52.250;21.228;2022-07-10T09:45:14;99993.13;;;25.44;41.65
36254;BME280;22291;52.250;21.228;2022-07-10T09:50:28;99981.68;;;25.81;41.96
36254;BME280;22291;52.250;21.228;2022-07-10T09:52:59;99979.50;;;26.28;41.65
36254;BME280;22291;52.250;21.228;2022-07-10T09:55:32;99983.34;;;26.46;40.94
36254;BME280;22291;52.250;21.228;2022-07-10T09:58:02;99983.82;;;26.61;39.91
36254;BME280;22291;52.250;21.228;2022-07-10T10:00:34;99987.68;;;26.35;39.48
36254;BME280;22291;52.250;21.228;2022-07-10T10:03:05;99982.45;;;25.82;38.85
36254;BME280;22291;52.250;21.228;2022-07-10T10:05:45;99985.42;;;25.28;38.77
36254;BME280;22291;52.250;21.228;2022-07-10T10:11:13;99978.29;;;24.28;38.72
36254;BME280;22291;52.250;21.228;2022-07-10T10:13:41;99985.90;;;23.97;39.33
36254;BME280;22291;52.250;21.228;2022-07-10T10:16:09;99984.58;;;24.09;40.17
36254;BME280;22291;52.250;21.228;2022-07-10T10:18:37;99981.89;;;24.43;39.95
36254;BME280;22291;52.250;21.228;2022-07-10T10:21:05;99982.70;;;24.40;38.99
36254;BME280;22291;52.250;21.228;2022-07-10T10:23:32;99986.62;;;24.24;38.93
36254;BME280;22291;52.250;21.228;2022-07-10T10:26:00;99989.56;;;24.06;39.08
36254;BME280;22291;52.250;21.228;2022-07-10T10:28:27;99986.41;;;23.81;39.66
36254;BME280;22291;52.250;21.228;2022-07-10T10:31:00;99998.78;;;23.59;40.05
36254;BME280;22291;52.250;21.228;2022-07-10T10:36:06;100000.67;;;22.99;40.76
36254;BME280;22291;52.250;21.228;2022-07-10T10:41:36;99996.00;;;22.78;41.99
36254;BME280;22291;52.250;21.228;2022-07-10T10:47:00;99978.42;;;23.64;43.05
36254;BME280;22291;52.250;21.228;2022-07-10T10:49:25;99976.45;;;24.33;42.42
36254;BME280;22291;52.250;21.228;2022-07-10T10:57:35;99978.30;;;25.94;38.89
36254;BME280;22291;52.250;21.228;2022-07-10T11:00:06;99971.56;;;26.50;39.39
36254;BME280;22291;52.250;21.228;2022-07-10T11:02:37;99978.28;;;27.01;38.20
36254;BME280;22291;52.250;21.228;2022-07-10T11:08:01;99964.50;;;27.67;36.14
36254;BME280;22291;52.250;21.228;2022-07-10T11:15:46;99970.90;;;27.31;35.07
36254;BME280;22291;52.250;21.228;2022-07-10T11:18:18;99969.80;;;27.53;35.03
36254;BME280;22291;52.250;21.228;2022-07-10T11:20:52;99969.90;;;27.74;34.67
36254;BME280;22291;52.250;21.228;2022-07-10T11:23:39;99972.16;;;27.87;33.86
36254;BME280;22291;52.250;21.228;2022-07-10T11:26:19;99969.78;;;28.10;34.48
36254;BME280;22291;52.250;21.228;2022-07-10T11:29:04;99962.72;;;28.60;33.20
36254;BME280;22291;52.250;21.228;2022-07-10T11:31:33;99965.13;;;28.37;32.73
36254;BME280;22291;52.250;21.228;2022-07-10T11:34:01;99964.51;;;28.08;33.26
36254;BME280;22291;52.250;21.228;2022-07-10T11:36:28;99963.38;;;27.81;33.43
36254;BME280;22291;52.250;21.228;2022-07-10T11:39:02;99966.69;;;27.59;33.93
36254;BME280;22291;52.250;21.228;2022-07-10T11:41:30;99968.85;;;27.76;34.22
36254;BME280;22291;52.250;21.228;2022-07-10T11:43:59;99976.48;;;27.88;34.17
36254;BME280;22291;52.250;21.228;2022-07-10T11:46:31;99952.34;;;28.02;34.12
36254;BME280;22291;52.250;21.228;2022-07-10T11:49:05;99966.89;;;28.22;33.84
36254;BME280;22291;52.250;21.228;2022-07-10T11:51:37;99965.63;;;28.40;33.69
36254;BME280;22291;52.250;21.228;2022-07-10T11:54:08;99968.20;;;28.55;32.54
36254;BME280;22291;52.250;21.228;2022-07-10T11:56:46;99968.72;;;28.50;32.78
36254;BME280;22291;52.250;21.228;2022-07-10T11:59:11;99973.08;;;28.59;31.96
36254;BME280;22291;52.250;21.228;2022-07-10T12:01:44;99968.28;;;28.60;32.30
36254;BME280;22291;52.250;21.228;2022-07-10T12:04:13;99964.30;;;28.74;31.93
36254;BME280;22291;52.250;21.228;2022-07-10T12:06:44;99958.33;;;29.01;32.07
36254;BME280;22291;52.250;21.228;2022-07-10T12:09:20;99961.20;;;29.18;31.68
36254;BME280;22291;52.250;21.228;2022-07-10T12:12:03;99976.83;;;29.29;31.29
36254;BME280;22291;52.250;21.228;2022-07-10T12:14:32;99964.05;;;29.23;31.40
36254;BME280;22291;52.250;21.228;2022-07-10T12:16:59;99965.36;;;29.05;30.19
36254;BME280;22291;52.250;21.228;2022-07-10T12:19:27;99959.98;;;28.85;30.89
36254;BME280;22291;52.250;21.228;2022-07-10T12:21:57;99969.41;;;28.62;29.91
36254;BME280;22291;52.250;21.228;2022-07-10T12:24:25;99962.19;;;28.27;31.11
36254;BME280;22291;52.250;21.228;2022-07-10T12:26:53;99952.31;;;28.47;31.58
36254;BME280;22291;52.250;21.228;2022-07-10T12:29:22;99945.55;;;28.69;31.38
36254;BME280;22291;52.250;21.228;2022-07-10T12:31:57;99952.84;;;28.72;31.34
36254;BME280;22291;52.250;21.228;2022-07-10T12:34:38;99948.48;;;28.71;30.88
36254;BME280;22291;52.250;21.228;2022-07-10T12:37:12;99947.95;;;28.25;30.86
36254;BME280;22291;52.250;21.228;2022-07-10T12:39:52;99956.44;;;27.72;31.06
36254;BME280;22291;52.250;21.228;2022-07-10T12:42:26;99956.34;;;27.07;31.31
36254;BME280;22291;52.250;21.228;2022-07-10T12:44:53;99957.38;;;26.36;31.79
36254;BME280;22291;52.250;21.228;2022-07-10T12:47:21;99972.14;;;25.70;32.75
36254;BME280;22291;52.250;21.228;2022-07-10T12:52:29;99974.49;;;24.71;34.49
36254;BME280;22291;52.250;21.228;2022-07-10T12:57:52;99982.39;;;24.12;35.59
36254;BME280;22291;52.250;21.228;2022-07-10T13:00:26;99981.72;;;23.71;35.81
36254;BME280;22291;52.250;21.228;2022-07-10T13:03:07;99979.73;;;23.45;36.23
36254;BME280;22291;52.250;21.228;2022-07-10T13:05:39;99991.08;;;23.28;36.40
36254;BME280;22291;52.250;21.228;2022-07-10T13:08:20;99991.73;;;23.21;36.84
36254;BME280;22291;52.250;21.228;2022-07-10T13:10:54;99986.59;;;23.23;37.39
36254;BME280;22291;52.250;21.228;2022-07-10T13:13:21;99993.78;;;23.36;37.80
36254;BME280;22291;52.250;21.228;2022-07-10T13:15:48;99993.53;;;23.45;38.04
36254;BME280;22291;52.250;21.228;2022-07-10T13:18:26;99992.59;;;23.40;37.85
36254;BME280;22291;52.250;21.228;2022-07-10T13:20:54;99998.19;;;23.22;38.27
36254;BME280;22291;52.250;21.228;2022-07-10T13:23:23;100002.04;;;23.06;38.42
36254;BME280;22291;52.250;21.228;2022-07-10T13:25:52;100003.44;;;22.91;39.17